Time;durP1;ratioP1;P1;durP2;ratioP2;P2;SDS_P1;SDS_P2;PMS_P1;PMS_P2;Temp;Humidity;BMP_temperature;BMP_pressure;BME280_temperature;BME280_humidity;BME280_pressure;Samples;Min_cycle;Max_cycle;Signal;HPM_P1;HPM_P2
2021/07/01 00:00:46;;;;;;;22.25;14.77;;;;;;;;;;6102144;23;20002;-90
2021/07/01 00:03:32;;;;;;;20.17;13.77;;;;;;;;;;6101692;23;20093;-90
2021/07/01 00:05:58;;;;;;;18.10;12.25;;;;;;;;;;6100924;23;20006;-91
2021/07/01 00:08:24;;;;;;;16.25;11.95;;;;;;;;;;6125968;23;20020;-90
2021/07/01 00:10:50;;;;;;;16.70;11.95;;;;;;;;;;6127184;23;20006;-89
2021/07/01 00:13:25;;;;;;;16.60;12.95;;;;;;;;;;6126279;23;20017;-91
2021/07/01 00:15:51;;;;;;;23.08;15.70;;;;;;;;;;6127057;23;20010;-91
2021/07/01 00:18:16;;;;;;;18.83;13.02;;;;;;;;;;6101504;23;20097;-91
2021/07/01 00:20:42;;;;;;;18.10;12.82;;;;;;;;;;6101269;23;20403;-90
2021/07/01 00:23:08;;;;;;;15.05;11.80;;;;;;;;;;6104597;23;20028;-91
2021/07/01 00:25:36;;;;;;;16.73;13.30;;;;;;;;;;6097759;23;20057;-91
2021/07/01 00:28:02;;;;;;;18.60;12.27;;;;;;;;;;6072784;23;20014;-89
2021/07/01 00:30:34;;;;;;;15.35;11.07;;;;;;;;;;6073550;23;20438;-90
2021/07/01 00:32:59;;;;;;;14.48;10.07;;;;;;;;;;6072429;23;20009;-91
2021/07/01 00:35:25;;;;;;;16.45;11.95;;;;;;;;;;6072401;23;20010;-91
2021/07/01 00:37:57;;;;;;;16.27;12.27;;;;;;;;;;6097999;23;20352;-92
2021/07/01 00:40:22;;;;;;;15.82;11.55;;;;;;;;;;6074754;23;20006;-92
2021/07/01 00:42:48;;;;;;;15.32;10.35;;;;;;;;;;6082756;23;20101;-90
2021/07/01 00:45:14;;;;;;;19.77;12.35;;;;;;;;;;6135593;23;19998;-90
2021/07/01 00:47:40;;;;;;;17.80;12.68;;;;;;;;;;6125595;23;20045;-92
2021/07/01 00:50:56;;;;;;;17.17;11.98;;;;;;;;;;6127216;23;20017;-90
2021/07/01 00:53:26;;;;;;;16.35;10.32;;;;;;;;;;6127081;23;20049;-91
2021/07/01 00:56:46;;;;;;;18.77;12.73;;;;;;;;;;6126199;23;20153;-91
2021/07/01 00:59:12;;;;;;;18.42;12.20;;;;;;;;;;6084326;23;20014;-90
2021/07/01 01:01:38;;;;;;;18.63;12.38;;;;;;;;;;6146708;23;20246;-92
2021/07/01 01:04:04;;;;;;;15.02;9.45;;;;;;;;;;6095591;23;20317;-93
2021/07/01 01:06:30;;;;;;;13.52;9.95;;;;;;;;;;6096551;23;20009;-90
2021/07/01 01:08:58;;;;;;;18.30;11.50;;;;;;;;;;6096833;23;20037;-91
2021/07/01 01:11:27;;;;;;;13.32;10.48;;;;;;;;;;6096011;23;20015;-92
2021/07/01 01:14:05;;;;;;;12.70;9.77;;;;;;;;;;6096358;23;20003;-90
2021/07/01 01:16:51;;;;;;;15.60;9.40;;;;;;;;;;6096046;23;20435;-91
2021/07/01 01:19:16;;;;;;;15.40;11.18;;;;;;;;;;6097197;23;20368;-91
2021/07/01 01:21:48;;;;;;;16.48;11.23;;;;;;;;;;6095802;23;20006;-92
2021/07/01 01:24:22;;;;;;;15.85;9.63;;;;;;;;;;6072015;23;20014;-91
2021/07/01 01:26:48;;;;;;;15.00;9.73;;;;;;;;;;6095813;23;20164;-92
2021/07/01 01:29:14;;;;;;;15.50;10.25;;;;;;;;;;6072250;23;20041;-92
2021/07/01 01:31:54;;;;;;;15.80;8.98;;;;;;;;;;6095986;23;20011;-91
2021/07/01 01:34:20;;;;;;;15.55;10.85;;;;;;;;;;6096350;23;20011;-91
2021/07/01 01:36:46;;;;;;;18.60;10.63;;;;;;;;;;6096358;23;20538;-92
2021/07/01 01:39:12;;;;;;;13.40;9.95;;;;;;;;;;6096096;23;20010;-90
2021/07/01 01:41:45;;;;;;;13.07;8.60;;;;;;;;;;6095884;23;20006;-92
2021/07/01 01:44:14;;;;;;;13.80;9.10;;;;;;;;;;6096850;23;20017;-91
2021/07/01 01:46:40;;;;;;;19.77;10.93;;;;;;;;;;6098502;23;20017;-90
2021/07/01 01:49:07;;;;;;;17.77;9.80;;;;;;;;;;6097684;23;20006;-91
2021/07/01 01:51:45;;;;;;;14.23;10.25;;;;;;;;;;6097598;23;20017;-91
2021/07/01 01:54:14;;;;;;;14.60;10.75;;;;;;;;;;6097881;23;20089;-92
2021/07/01 01:59:40;;;;;;;15.52;12.25;;;;;;;;;;6097996;23;20494;-92
2021/07/01 02:02:06;;;;;;;16.38;13.25;;;;;;;;;;6098535;23;20460;-90
2021/07/01 02:04:32;;;;;;;18.27;11.05;;;;;;;;;;6098604;23;20025;-91
2021/07/01 02:06:58;;;;;;;14.88;9.45;;;;;;;;;;6098707;23;19999;-92
2021/07/01 02:09:23;;;;;;;16.38;9.13;;;;;;;;;;6096700;23;20012;-92
2021/07/01 02:11:58;;;;;;;14.88;9.18;;;;;;;;;;6097380;23;20387;-92
2021/07/01 02:14:32;;;;;;;15.73;10.07;;;;;;;;;;6097407;23;20010;-92
2021/07/01 02:16:58;;;;;;;14.43;10.63;;;;;;;;;;6097259;23;20017;-91
2021/07/01 02:22:34;;;;;;;;;;;;;;;;;;;;;
2021/07/01 02:25:00;;;;;;;13.15;8.40;;;;;;;;;;6038393;23;20082;-91
2021/07/01 02:27:27;;;;;;;12.10;7.88;;;;;;;;;;6057600;23;20082;-92
2021/07/01 02:29:53;;;;;;;10.98;8.40;;;;;;;;;;6102360;23;20089;-92
2021/07/01 02:32:19;;;;;;;15.95;10.90;;;;;;;;;;6126645;23;20102;-92
2021/07/01 02:35:09;;;;;;;16.65;9.15;;;;;;;;;;6102222;23;20058;-92
2021/07/01 02:37:53;;;;;;;16.70;9.70;;;;;;;;;;6097604;23;20013;-91
2021/07/01 02:40:19;;;;;;;13.90;8.50;;;;;;;;;;6102125;23;20096;-92
2021/07/01 02:43:11;;;;;;;12.82;8.18;;;;;;;;;;6102219;23;20096;-91
2021/07/01 02:46:31;;;;;;;;;;;;;;;;;;;;;
2021/07/01 02:52:16;;;;;;;10.30;8.68;;;;;;;;;;6098764;23;20017;-90
2021/07/01 02:54:50;;;;;;;11.10;7.75;;;;;;;;;;6097092;23;20037;-91
2021/07/01 02:57:16;;;;;;;11.10;7.50;;;;;;;;;;6098294;23;20073;-89
2021/07/01 02:59:42;;;;;;;12.57;8.18;;;;;;;;;;6119845;23;20021;-90
2021/07/01 03:02:07;;;;;;;11.68;7.75;;;;;;;;;;6126366;23;20008;-91
2021/07/01 03:04:52;;;;;;;13.07;7.03;;;;;;;;;;6126499;23;20021;-90
2021/07/01 03:07:18;;;;;;;11.27;6.80;;;;;;;;;;6126820;23;20142;-92
2021/07/01 03:10:17;;;;;;;11.10;7.82;;;;;;;;;;6126965;23;20046;-92
2021/07/01 03:12:43;;;;;;;12.20;8.10;;;;;;;;;;6041782;23;20008;-90
2021/07/01 03:15:09;;;;;;;14.35;7.55;;;;;;;;;;6038480;23;20022;-90
2021/07/01 03:17:42;;;;;;;11.15;6.88;;;;;;;;;;6038646;23;20094;-89
2021/07/01 03:20:08;;;;;;;10.82;6.53;;;;;;;;;;6038552;23;20041;-91
2021/07/01 03:25:09;;;;;;;11.93;7.60;;;;;;;;;;6126581;23;20030;-90
2021/07/01 03:27:34;;;;;;;10.63;6.90;;;;;;;;;;6101322;23;20013;-89
2021/07/01 03:30:42;;;;;;;13.32;6.20;;;;;;;;;;6128207;23;20538;-91
2021/07/01 03:33:08;;;;;;;9.85;6.28;;;;;;;;;;6101945;23;20037;-89
2021/07/01 03:35:33;;;;;;;11.57;6.72;;;;;;;;;;6101818;23;20014;-91
2021/07/01 03:38:00;;;;;;;12.43;9.50;;;;;;;;;;6101300;23;20017;-91
2021/07/01 03:43:21;;;;;;;10.18;6.35;;;;;;;;;;6119022;23;20025;-89
2021/07/01 03:46:00;;;;;;;;;;;;;;;;;;;;;
2021/07/01 03:48:26;;;;;;;11.00;6.45;;;;;;;;;;6127854;23;20140;-92
2021/07/01 03:51:10;;;;;;;12.27;5.97;;;;;;;;;;6101689;23;20033;-91
2021/07/01 03:53:36;;;;;;;10.55;5.63;;;;;;;;;;6127774;23;20076;-91
2021/07/01 03:56:11;;;;;;;11.02;5.28;;;;;;;;;;6101280;23;20009;-92
2021/07/01 03:58:43;;;;;;;;;;;;;;;;;;6101913;23;20037;-91
2021/07/01 04:04:27;;;;;;;8.77;5.75;;;;;;;;;;6104097;23;20022;-93
2021/07/01 04:07:04;;;;;;;10.93;9.77;;;;;;;;;;6105105;23;20046;-92
2021/07/01 04:10:17;;;;;;;9.55;5.38;;;;;;;;;;6058374;23;20034;-91
2021/07/01 04:13:19;;;;;;;;;;;;;;;;;;;;;
2021/07/01 04:35:07;;;;;;;12.05;10.18;;;;;;;;;;5385469;22;1625179;-85
2021/07/01 04:37:33;;;;;;;14.80;10.48;;;;;;;;;;5050683;28;20045;-84
2021/07/01 04:39:58;;;;;;;16.10;10.30;;;;;;;;;;5050675;28;20021;-84
2021/07/01 04:42:24;;;;;;;12.07;10.02;;;;;;;;;;5050671;28;20083;-83
2021/07/01 04:44:49;;;;;;;12.50;10.13;;;;;;;;;;5050532;28;20044;-83
2021/07/01 04:47:15;;;;;;;11.52;9.20;;;;;;;;;;5050411;28;20029;-84
2021/07/01 04:49:41;;;;;;;12.15;10.75;;;;;;;;;;5050485;28;20029;-85
2021/07/01 04:52:06;;;;;;;12.52;9.07;;;;;;;;;;5050814;28;20048;-84
2021/07/01 04:54:32;;;;;;;14.35;10.52;;;;;;;;;;5050621;28;20112;-83
2021/07/01 04:56:57;;;;;;;12.60;7.30;;;;;;;;;;5048997;28;20115;-83
2021/07/01 04:59:23;;;;;;;12.68;9.20;;;;;;;;;;5050294;28;20040;-83
2021/07/01 05:01:49;;;;;;;13.25;10.02;;;;;;;;;;5050425;28;20032;-85
2021/07/01 05:04:16;;;;;;;12.45;11.05;;;;;;;;;;5048724;28;20112;-85
2021/07/01 05:06:42;;;;;;;12.82;7.15;;;;;;;;;;5049235;28;20377;-83
2021/07/01 05:09:09;;;;;;;13.90;11.02;;;;;;;;;;5032625;28;20032;-83
2021/07/01 05:11:36;;;;;;;14.55;11.00;;;;;;;;;;5032120;28;20033;-83
2021/07/01 05:14:02;;;;;;;14.57;10.93;;;;;;;;;;5049945;28;20030;-83
2021/07/01 05:16:29;;;;;;;14.70;11.65;;;;;;;;;;5032509;28;20032;-83
2021/07/01 05:18:57;;;;;;;13.98;10.25;;;;;;;;;;5049824;28;20025;-83
2021/07/01 05:21:23;;;;;;;9.48;6.45;;;;;;;;;;5032859;28;20419;-83
2021/07/01 05:23:49;;;;;;;14.57;9.43;;;;;;;;;;5049616;28;20033;-84
2021/07/01 05:26:16;;;;;;;9.93;8.88;;;;;;;;;;5049671;28;20029;-83
2021/07/01 05:28:42;;;;;;;12.13;9.02;;;;;;;;;;5049674;28;20025;-83
2021/07/01 05:31:07;;;;;;;12.18;6.90;;;;;;;;;;5049571;28;20362;-82
2021/07/01 05:33:33;;;;;;;9.40;5.10;;;;;;;;;;5049823;28;20033;-82
2021/07/01 05:35:59;;;;;;;10.90;7.47;;;;;;;;;;5036568;28;20051;-82
2021/07/01 05:38:25;;;;;;;8.65;5.25;;;;;;;;;;5035115;28;20037;-82
2021/07/01 05:40:51;;;;;;;10.77;6.40;;;;;;;;;;5036090;28;20030;-83
2021/07/01 05:43:16;;;;;;;11.05;6.47;;;;;;;;;;5018407;28;20017;-82
2021/07/01 05:45:43;;;;;;;8.63;3.75;;;;;;;;;;5036058;28;20029;-82
2021/07/01 05:48:10;;;;;;;10.68;3.72;;;;;;;;;;5035046;28;20135;-83
2021/07/01 05:50:42;;;;;;;10.60;6.30;;;;;;;;;;5018157;28;20033;-83
2021/07/01 05:53:10;;;;;;;12.77;6.60;;;;;;;;;;5018549;28;20025;-83
2021/07/01 05:55:36;;;;;;;10.23;4.97;;;;;;;;;;5017970;28;20397;-82
2021/07/01 05:58:03;;;;;;;6.72;4.20;;;;;;;;;;5036033;28;20022;-83
2021/07/01 06:00:30;;;;;;;7.63;3.75;;;;;;;;;;5035786;28;20022;-83
2021/07/01 06:02:56;;;;;;;5.20;2.85;;;;;;;;;;5035701;28;20025;-83
2021/07/01 06:05:22;;;;;;;10.98;3.45;;;;;;;;;;5018265;28;20026;-82
2021/07/01 06:07:50;;;;;;;6.50;3.25;;;;;;;;;;5035814;28;20095;-83
2021/07/01 06:10:19;;;;;;;6.45;3.00;;;;;;;;;;5035727;28;20029;-81
2021/07/01 06:12:45;;;;;;;8.40;3.10;;;;;;;;;;5035625;28;20029;-82
2021/07/01 06:15:12;;;;;;;7.35;3.35;;;;;;;;;;5035838;28;20021;-82
2021/07/01 06:17:38;;;;;;;12.00;4.65;;;;;;;;;;5035483;28;20380;-82
2021/07/01 06:20:09;;;;;;;11.50;6.70;;;;;;;;;;5035439;28;20025;-81
2021/07/01 06:22:36;;;;;;;6.85;4.78;;;;;;;;;;5035667;28;20358;-82
2021/07/01 06:25:03;;;;;;;6.95;3.40;;;;;;;;;;5035372;28;20497;-81
2021/07/01 06:27:39;;;;;;;26.17;13.77;;;;;;;;;;5035643;28;20464;-82
2021/07/01 06:30:09;;;;;;;;;;;;;;;;;;5035724;28;20033;-82
2021/07/01 06:32:43;;;;;;;7.88;4.15;;;;;;;;;;5034049;28;19917;-89
2021/07/01 06:35:09;;;;;;;6.80;4.28;;;;;;;;;;5017669;28;20404;-82
2021/07/01 06:37:38;;;;;;;9.25;3.70;;;;;;;;;;5035177;28;20108;-82
2021/07/01 06:40:06;;;;;;;12.70;3.83;;;;;;;;;;5033722;28;20094;-82
2021/07/01 06:42:33;;;;;;;9.73;3.85;;;;;;;;;;5034997;28;20087;-82
2021/07/01 06:45:03;;;;;;;8.90;3.63;;;;;;;;;;5035007;28;20076;-94
2021/07/01 06:47:29;;;;;;;9.80;5.00;;;;;;;;;;5033991;28;20492;-82
2021/07/01 06:49:55;;;;;;;8.13;6.88;;;;;;;;;;5017427;28;20087;-82
2021/07/01 06:52:21;;;;;;;8.82;3.85;;;;;;;;;;5033555;28;20021;-82
2021/07/01 06:54:47;;;;;;;7.10;3.67;;;;;;;;;;5034826;28;20022;-83
2021/07/01 06:57:14;;;;;;;7.45;4.38;;;;;;;;;;5034797;28;20028;-82
2021/07/01 06:59:40;;;;;;;8.82;3.83;;;;;;;;;;5017256;28;20109;-84
2021/07/01 07:02:08;;;;;;;10.20;6.50;;;;;;;;;;5034687;28;20075;-82
2021/07/01 07:04:34;;;;;;;8.63;4.55;;;;;;;;;;5034498;28;20393;-81
2021/07/01 07:07:03;;;;;;;8.50;3.70;;;;;;;;;;5034624;28;20077;-82
2021/07/01 07:09:29;;;;;;;7.65;3.45;;;;;;;;;;5017023;28;20028;-82
2021/07/01 07:11:54;;;;;;;10.18;4.40;;;;;;;;;;5017008;28;20033;-82
2021/07/01 07:14:20;;;;;;;7.45;3.83;;;;;;;;;;5034728;28;20053;-82
2021/07/01 07:16:48;;;;;;;9.60;5.97;;;;;;;;;;5034721;28;20373;-82
2021/07/01 07:19:17;;;;;;;7.70;3.53;;;;;;;;;;5034573;28;20022;-82
2021/07/01 07:21:45;;;;;;;9.20;3.75;;;;;;;;;;5034236;28;20485;-82
2021/07/01 07:24:14;;;;;;;8.55;6.35;;;;;;;;;;5034485;28;20493;-82
2021/07/01 07:26:40;;;;;;;10.35;5.18;;;;;;;;;;5034488;28;20030;-83
2021/07/01 07:29:08;;;;;;;7.55;3.80;;;;;;;;;;5034358;28;20036;-82
2021/07/01 07:31:39;;;;;;;9.38;5.97;;;;;;;;;;5033144;28;20075;-81
2021/07/01 07:34:05;;;;;;;11.07;4.35;;;;;;;;;;5034165;28;20370;-83
2021/07/01 07:36:33;;;;;;;6.18;3.40;;;;;;;;;;5034122;28;20036;-82
2021/07/01 07:39:00;;;;;;;9.23;3.67;;;;;;;;;;5016257;28;20037;-82
2021/07/01 07:41:26;;;;;;;11.88;3.25;;;;;;;;;;5034518;28;20036;-81
2021/07/01 07:43:54;;;;;;;8.80;4.07;;;;;;;;;;5016206;28;20381;-81
2021/07/01 07:46:22;;;;;;;6.68;3.40;;;;;;;;;;5016202;28;20036;-82
2021/07/01 07:48:49;;;;;;;6.93;3.13;;;;;;;;;;5033901;28;20025;-82
2021/07/01 07:51:16;;;;;;;10.73;3.67;;;;;;;;;;5033762;28;20037;-81
2021/07/01 07:53:46;;;;;;;7.97;3.90;;;;;;;;;;5033741;28;20083;-82
2021/07/01 07:56:12;;;;;;;10.05;4.60;;;;;;;;;;5033742;28;20389;-82
2021/07/01 07:58:46;;;;;;;7.13;3.67;;;;;;;;;;5033725;28;20032;-82
2021/07/01 08:01:12;;;;;;;8.65;5.15;;;;;;;;;;5032490;28;20112;-81
2021/07/01 08:03:40;;;;;;;9.40;4.18;;;;;;;;;;5033581;28;20449;-82
2021/07/01 08:06:07;;;;;;;7.75;3.42;;;;;;;;;;5033630;28;20064;-81
2021/07/01 08:08:38;;;;;;;10.23;6.50;;;;;;;;;;5032301;28;20029;-80
2021/07/01 08:11:06;;;;;;;9.32;4.00;;;;;;;;;;5033668;28;20017;-81
2021/07/01 08:13:33;;;;;;;7.13;4.22;;;;;;;;;;5033487;28;20025;-81
2021/07/01 08:15:59;;;;;;;7.65;3.60;;;;;;;;;;5033413;28;20060;-81
2021/07/01 08:18:39;;;;;;;9.20;4.68;;;;;;;;;;5033922;28;20447;-81
2021/07/01 08:21:10;;;;;;;13.07;7.20;;;;;;;;;;5033434;28;20029;-81
2021/07/01 08:23:36;;;;;;;6.68;3.35;;;;;;;;;;5032949;28;20068;-82
2021/07/01 08:26:04;;;;;;;6.60;3.78;;;;;;;;;;5033657;28;20053;-83
2021/07/01 08:28:30;;;;;;;7.22;4.22;;;;;;;;;;5033938;28;20033;-82
2021/07/01 08:30:59;;;;;;;8.27;3.92;;;;;;;;;;5033326;28;20032;-81
2021/07/01 08:33:34;;;;;;;7.68;3.67;;;;;;;;;;5033365;28;20036;-82
2021/07/01 08:36:01;;;;;;;10.20;4.60;;;;;;;;;;5033304;28;20401;-81
2021/07/01 08:38:28;;;;;;;9.93;6.90;;;;;;;;;;5032357;28;20420;-81
2021/07/01 08:41:04;;;;;;;8.07;4.15;;;;;;;;;;5033252;28;20100;-81
2021/07/01 08:43:42;;;;;;;8.07;3.53;;;;;;;;;;5033234;28;20417;-82
2021/07/01 08:46:13;;;;;;;11.35;4.20;;;;;;;;;;5033284;28;20053;-81
2021/07/01 08:49:04;;;;;;;7.10;3.63;;;;;;;;;;5032552;28;20361;-81
2021/07/01 08:51:36;;;;;;;6.80;3.88;;;;;;;;;;5033200;28;20021;-81
2021/07/01 08:54:23;;;;;;;8.63;5.45;;;;;;;;;;5033202;28;20115;-82
2021/07/01 08:56:51;;;;;;;7.60;3.47;;;;;;;;;;5033559;28;20030;-82
2021/07/01 08:59:20;;;;;;;9.20;4.18;;;;;;;;;;5015416;28;20393;-82
2021/07/01 09:01:56;;;;;;;9.02;4.13;;;;;;;;;;5031844;28;20053;-82
2021/07/01 09:04:25;;;;;;;9.95;3.70;;;;;;;;;;5033276;28;20029;-81
2021/07/01 09:07:02;;;;;;;10.85;3.72;;;;;;;;;;5033082;28;20028;-82
2021/07/01 09:09:34;;;;;;;9.60;3.80;;;;;;;;;;5015702;28;20087;-81
2021/07/01 09:12:07;;;;;;;8.85;5.00;;;;;;;;;;5036800;28;20443;-81
2021/07/01 09:14:36;;;;;;;8.73;4.13;;;;;;;;;;5036713;28;20025;-82
2021/07/01 09:17:11;;;;;;;10.23;4.35;;;;;;;;;;5036683;28;20553;-81
2021/07/01 09:19:38;;;;;;;12.38;5.88;;;;;;;;;;5036698;28;20033;-81
2021/07/01 09:22:04;;;;;;;8.27;3.75;;;;;;;;;;5035300;28;20026;-82
2021/07/01 09:24:36;;;;;;;6.40;3.17;;;;;;;;;;5036494;28;20037;-81
2021/07/01 09:27:08;;;;;;;9.35;3.42;;;;;;;;;;5036797;28;20532;-83
2021/07/01 09:29:34;;;;;;;8.18;3.88;;;;;;;;;;5036757;28;20420;-81
2021/07/01 09:32:00;;;;;;;8.43;4.32;;;;;;;;;;5018966;28;20133;-81
2021/07/01 09:34:27;;;;;;;11.60;6.00;;;;;;;;;;5036169;28;20060;-82
2021/07/01 09:36:56;;;;;;;11.93;6.45;;;;;;;;;;5035176;28;20021;-82
2021/07/01 09:39:24;;;;;;;8.50;3.33;;;;;;;;;;5036206;28;20112;-84
2021/07/01 09:41:50;;;;;;;8.05;4.72;;;;;;;;;;5036201;28;20105;-84
2021/07/01 09:44:17;;;;;;;8.00;3.55;;;;;;;;;;5035965;28;20033;-83
2021/07/01 09:46:47;;;;;;;8.55;3.95;;;;;;;;;;5036104;28;20378;-83
2021/07/01 09:49:20;;;;;;;9.10;4.15;;;;;;;;;;5036086;28;20504;-82
2021/07/01 09:51:54;;;;;;;8.32;6.63;;;;;;;;;;5036019;28;20033;-84
2021/07/01 09:54:22;;;;;;;8.45;4.15;;;;;;;;;;5034673;28;20079;-83
2021/07/01 09:56:52;;;;;;;10.98;7.10;;;;;;;;;;5035905;28;20049;-84
2021/07/01 09:59:27;;;;;;;8.88;7.28;;;;;;;;;;5034778;28;20021;-83
2021/07/01 10:01:53;;;;;;;9.50;6.93;;;;;;;;;;5035798;28;20473;-83
2021/07/01 10:04:19;;;;;;;7.63;4.03;;;;;;;;;;5018439;28;20039;-84
2021/07/01 10:06:44;;;;;;;9.13;5.60;;;;;;;;;;5018290;28;20095;-84
2021/07/01 10:09:31;;;;;;;8.18;3.65;;;;;;;;;;5018000;28;20117;-86
2021/07/01 10:11:59;;;;;;;8.98;3.53;;;;;;;;;;5035690;28;20051;-89
2021/07/01 10:14:38;;;;;;;7.90;5.88;;;;;;;;;;5035702;28;20029;-85
2021/07/01 10:17:12;;;;;;;9.75;7.00;;;;;;;;;;5035640;28;20105;-83
2021/07/01 10:19:39;;;;;;;14.52;6.50;;;;;;;;;;5035444;28;20021;-85
2021/07/01 10:22:07;;;;;;;10.70;3.83;;;;;;;;;;5035352;28;20033;-85
2021/07/01 10:24:46;;;;;;;6.82;5.30;;;;;;;;;;5035636;28;20121;-84
2021/07/01 10:27:30;;;;;;;7.07;3.50;;;;;;;;;;5035704;28;20029;-84
2021/07/01 10:29:58;;;;;;;8.88;5.30;;;;;;;;;;5035292;28;20040;-84
2021/07/01 10:32:35;;;;;;;8.32;4.28;;;;;;;;;;5033992;28;20366;-85
2021/07/01 10:35:01;;;;;;;7.28;4.78;;;;;;;;;;5033741;28;20125;-85
2021/07/01 10:37:27;;;;;;;8.23;5.95;;;;;;;;;;5035188;28;20113;-84
2021/07/01 10:39:53;;;;;;;7.65;4.18;;;;;;;;;;5035410;28;20026;-85
2021/07/01 10:42:20;;;;;;;10.43;4.10;;;;;;;;;;5035089;28;20026;-84
2021/07/01 10:44:47;;;;;;;9.48;3.55;;;;;;;;;;5035499;28;20026;-84
2021/07/01 10:47:41;;;;;;;10.70;6.20;;;;;;;;;;5017993;28;20104;-84
2021/07/01 10:50:20;;;;;;;9.15;4.75;;;;;;;;;;5013649;28;20030;-84
2021/07/01 10:52:46;;;;;;;6.95;4.35;;;;;;;;;;5034910;28;20503;-84
2021/07/01 10:55:13;;;;;;;13.48;6.90;;;;;;;;;;5017395;28;20034;-84
2021/07/01 10:57:49;;;;;;;9.13;6.70;;;;;;;;;;5034735;28;20079;-85
2021/07/01 11:00:15;;;;;;;9.50;3.65;;;;;;;;;;5033479;28;20033;-84
2021/07/01 11:02:46;;;;;;;8.35;3.60;;;;;;;;;;5033366;28;20087;-84
2021/07/01 11:05:12;;;;;;;6.88;4.43;;;;;;;;;;5034733;28;20080;-86
2021/07/01 11:07:46;;;;;;;9.93;4.85;;;;;;;;;;5034551;28;20382;-86
2021/07/01 11:10:13;;;;;;;10.52;7.18;;;;;;;;;;5034525;28;20516;-83
2021/07/01 11:12:47;;;;;;;11.55;6.93;;;;;;;;;;5035000;28;20025;-84
2021/07/01 11:15:13;;;;;;;8.73;7.57;;;;;;;;;;5034431;28;20033;-85
2021/07/01 11:17:42;;;;;;;11.65;6.40;;;;;;;;;;5034352;28;20028;-84
2021/07/01 11:20:26;;;;;;;8.32;4.00;;;;;;;;;;5016632;28;20116;-84
2021/07/01 11:22:57;;;;;;;10.43;6.65;;;;;;;;;;5016561;28;20473;-83
2021/07/01 11:25:26;;;;;;;10.48;5.22;;;;;;;;;;5016734;28;20071;-85
2021/07/01 11:27:52;;;;;;;7.30;5.03;;;;;;;;;;5033239;28;20400;-85
2021/07/01 11:30:26;;;;;;;8.07;4.80;;;;;;;;;;5016469;28;20088;-84
2021/07/01 11:33:14;;;;;;;9.88;5.00;;;;;;;;;;5033592;28;20071;-85
2021/07/01 11:35:41;;;;;;;9.07;5.10;;;;;;;;;;5033867;28;20502;-85
2021/07/01 11:38:30;;;;;;;8.30;5.00;;;;;;;;;;5032689;28;20029;-84
2021/07/01 11:41:00;;;;;;;15.13;8.60;;;;;;;;;;5033973;28;20033;-84
2021/07/01 11:43:27;;;;;;;7.03;3.92;;;;;;;;;;5033846;28;20034;-85
2021/07/01 11:45:54;;;;;;;9.10;4.57;;;;;;;;;;5033871;28;20025;-84
2021/07/01 11:48:22;;;;;;;8.50;3.95;;;;;;;;;;5016079;28;20041;-85
2021/07/01 11:50:49;;;;;;;8.00;5.28;;;;;;;;;;5016113;28;20036;-84
2021/07/01 11:53:19;;;;;;;8.55;3.55;;;;;;;;;;5034008;28;20037;-82
2021/07/01 11:55:47;;;;;;;9.85;6.53;;;;;;;;;;5034130;28;20025;-86
2021/07/01 11:58:14;;;;;;;11.35;3.30;;;;;;;;;;5034027;28;20121;-84
2021/07/01 12:00:41;;;;;;;8.63;4.03;;;;;;;;;;5033699;28;20057;-83
2021/07/01 12:03:07;;;;;;;10.43;3.67;;;;;;;;;;5032581;28;20101;-83
2021/07/01 12:05:34;;;;;;;12.00;5.05;;;;;;;;;;5034141;28;20475;-84
2021/07/01 12:08:03;;;;;;;8.70;3.78;;;;;;;;;;5033684;28;20075;-83
2021/07/01 12:10:29;;;;;;;;;;;;;;;;;;5034082;28;20026;-83
2021/07/01 12:15:06;;;;;;;10.45;8.00;;;;;;;;;;5112261;27;20389;-82
2021/07/01 12:18:04;;;;;;;8.48;6.72;;;;;;;;;;5111555;28;20121;-84
2021/07/01 12:20:34;;;;;;;11.38;6.20;;;;;;;;;;5111438;28;20050;-85
2021/07/01 12:23:13;;;;;;;7.60;6.65;;;;;;;;;;5111408;28;20031;-81
2021/07/01 12:25:41;;;;;;;9.57;4.65;;;;;;;;;;5111625;28;20028;-85
2021/07/01 12:28:07;;;;;;;13.25;7.40;;;;;;;;;;5127318;28;20024;-82
2021/07/01 12:31:02;;;;;;;9.75;4.07;;;;;;;;;;5128100;28;20026;-81
2021/07/01 12:33:53;;;;;;;9.10;6.78;;;;;;;;;;5126857;28;20088;-82
2021/07/01 12:36:19;;;;;;;9.45;6.50;;;;;;;;;;5111117;28;20027;-81
2021/07/01 12:39:15;;;;;;;12.77;4.88;;;;;;;;;;5111291;28;20520;-82
2021/07/01 12:41:42;;;;;;;7.60;6.05;;;;;;;;;;5111325;28;20023;-80
2021/07/01 12:44:38;;;;;;;8.93;7.60;;;;;;;;;;5111005;28;20103;-80
2021/07/01 12:47:08;;;;;;;8.40;6.03;;;;;;;;;;5111307;28;20103;-80
2021/07/01 12:49:34;;;;;;;9.20;6.63;;;;;;;;;;5110947;28;20024;-80
2021/07/01 12:52:01;;;;;;;9.50;6.68;;;;;;;;;;5110878;28;20061;-80
2021/07/01 12:54:30;;;;;;;9.40;6.72;;;;;;;;;;5126482;28;20028;-81
2021/07/01 12:56:56;;;;;;;10.23;3.10;;;;;;;;;;5110666;28;20028;-81
2021/07/01 12:59:27;;;;;;;10.43;6.13;;;;;;;;;;5110923;28;20104;-81
2021/07/01 13:01:53;;;;;;;9.20;4.00;;;;;;;;;;5110827;28;20103;-82
2021/07/01 13:04:23;;;;;;;10.73;6.40;;;;;;;;;;5126419;28;20032;-92
2021/07/01 13:06:49;;;;;;;7.35;3.70;;;;;;;;;;5110466;28;20015;-82
2021/07/01 13:09:33;;;;;;;10.95;4.47;;;;;;;;;;5108828;28;20024;-83
2021/07/01 13:12:02;;;;;;;10.93;6.75;;;;;;;;;;5110535;28;20031;-81
2021/07/01 13:14:29;;;;;;;8.20;4.47;;;;;;;;;;5108981;28;20056;-82
2021/07/01 13:17:12;;;;;;;8.75;4.03;;;;;;;;;;5110265;28;20475;-82
2021/07/01 13:19:44;;;;;;;10.50;3.65;;;;;;;;;;5110462;28;20024;-81
2021/07/01 13:22:21;;;;;;;11.90;6.18;;;;;;;;;;5110258;28;20035;-81
2021/07/01 13:25:03;;;;;;;7.53;6.10;;;;;;;;;;5103724;28;20032;-82
2021/07/01 13:28:00;;;;;;;6.50;3.72;;;;;;;;;;5095445;28;20043;-81
2021/07/01 13:30:28;;;;;;;11.82;6.75;;;;;;;;;;5072728;28;20075;-82
2021/07/01 13:33:03;;;;;;;8.65;6.07;;;;;;;;;;5112095;28;20095;-82
2021/07/01 13:35:31;;;;;;;9.82;7.50;;;;;;;;;;5096387;28;20020;-81
2021/07/01 13:37:57;;;;;;;7.80;7.10;;;;;;;;;;5096520;28;20106;-82
2021/07/01 13:40:24;;;;;;;6.63;3.63;;;;;;;;;;5111947;28;20428;-81
2021/07/01 13:42:52;;;;;;;8.38;3.50;;;;;;;;;;5096782;28;20024;-80
2021/07/01 13:45:25;;;;;;;7.43;6.63;;;;;;;;;;5096120;28;20020;-82
2021/07/01 13:47:53;;;;;;;7.72;5.90;;;;;;;;;;5096091;28;20020;-81
2021/07/01 13:50:20;;;;;;;11.50;3.80;;;;;;;;;;5095979;28;20024;-82
2021/07/01 13:52:47;;;;;;;7.15;3.72;;;;;;;;;;5112521;28;20028;-82
2021/07/01 13:55:40;;;;;;;8.93;5.47;;;;;;;;;;5096293;28;20025;-82
2021/07/01 13:58:07;;;;;;;8.68;6.28;;;;;;;;;;5095027;28;20040;-87
2021/07/01 14:00:47;;;;;;;7.88;3.25;;;;;;;;;;5095778;28;20024;-81
2021/07/01 14:03:14;;;;;;;8.10;6.57;;;;;;;;;;5094620;28;20028;-81
2021/07/01 14:05:46;;;;;;;9.88;3.45;;;;;;;;;;5095999;28;20039;-81
2021/07/01 14:08:24;;;;;;;9.32;6.63;;;;;;;;;;5111475;28;20078;-81
2021/07/01 14:11:20;;;;;;;6.82;2.95;;;;;;;;;;5111407;28;20024;-81
2021/07/01 14:13:47;;;;;;;9.00;5.47;;;;;;;;;;5111127;28;20058;-83
2021/07/01 14:16:15;;;;;;;6.53;3.55;;;;;;;;;;5111393;28;20102;-82
2021/07/01 14:18:47;;;;;;;7.15;4.93;;;;;;;;;;5095771;28;20028;-80
2021/07/01 14:21:13;;;;;;;7.22;3.35;;;;;;;;;;5095547;28;20020;-80
2021/07/01 14:23:39;;;;;;;6.47;2.80;;;;;;;;;;5111081;28;20027;-81
2021/07/01 14:26:12;;;;;;;8.40;5.38;;;;;;;;;;5111058;28;20031;-81
2021/07/01 14:28:38;;;;;;;10.35;5.75;;;;;;;;;;5095612;28;20020;-81
2021/07/01 14:31:09;;;;;;;6.13;5.53;;;;;;;;;;5095288;28;20023;-81
2021/07/01 14:33:46;;;;;;;7.32;5.32;;;;;;;;;;5094002;28;20028;-84
2021/07/01 14:36:11;;;;;;;8.82;5.35;;;;;;;;;;5094507;28;20051;-80
2021/07/01 14:38:43;;;;;;;9.32;5.07;;;;;;;;;;5095221;28;20460;-81
2021/07/01 14:41:20;;;;;;;5.88;2.38;;;;;;;;;;5095098;28;20425;-80
2021/07/01 14:43:47;;;;;;;4.57;2.88;;;;;;;;;;5095096;28;20348;-80
2021/07/01 14:46:21;;;;;;;5.68;4.57;;;;;;;;;;5094954;28;20024;-81
2021/07/01 14:48:50;;;;;;;5.53;2.10;;;;;;;;;;5094924;28;20031;-81
2021/07/01 14:51:24;;;;;;;8.07;2.97;;;;;;;;;;5094856;28;20024;-82
2021/07/01 14:53:51;;;;;;;6.47;4.93;;;;;;;;;;5093497;28;20032;-80
2021/07/01 14:56:48;;;;;;;6.82;5.15;;;;;;;;;;5110777;28;20203;-93
2021/07/01 14:59:15;;;;;;;7.03;5.03;;;;;;;;;;5095016;28;20398;-94
2021/07/01 15:01:54;;;;;;;6.68;5.47;;;;;;;;;;5110724;28;20024;-80
2021/07/01 15:04:34;;;;;;;7.70;5.50;;;;;;;;;;5094868;28;20020;-82
2021/07/01 15:07:01;;;;;;;11.82;6.10;;;;;;;;;;5094692;28;20020;-82
2021/07/01 15:09:27;;;;;;;10.80;7.65;;;;;;;;;;5094448;28;20395;-82
2021/07/01 15:11:53;;;;;;;13.32;11.85;;;;;;;;;;5094535;28;20078;-81
2021/07/01 15:14:19;;;;;;;185.40;168.02;;;;;;;;;;5094292;28;20048;-80
2021/07/01 15:16:46;;;;;;;25.92;17.17;;;;;;;;;;5094357;28;20380;-81
2021/07/01 15:19:14;;;;;;;12.90;7.60;;;;;;;;;;5094335;28;20020;-81
2021/07/01 15:21:44;;;;;;;9.13;5.97;;;;;;;;;;5094263;28;20105;-82
2021/07/01 15:24:10;;;;;;;22.83;17.45;;;;;;;;;;5094229;28;20027;-82
2021/07/01 15:26:36;;;;;;;27.20;18.27;;;;;;;;;;5094251;28;20024;-82
2021/07/01 15:29:02;;;;;;;11.32;5.93;;;;;;;;;;5094116;28;20367;-82
2021/07/01 15:31:27;;;;;;;10.77;6.78;;;;;;;;;;5109797;28;20020;-80
2021/07/01 15:33:55;;;;;;;9.88;5.88;;;;;;;;;;5093927;28;20084;-82
2021/07/01 15:36:21;;;;;;;15.95;5.60;;;;;;;;;;5094090;28;20375;-82
2021/07/01 15:40:19;;;;;;;12.02;4.53;;;;;;;;;;5095338;27;1714018;-82